Time;durP1;ratioP1;P1;durP2;ratioP2;P2;SDS_P1;SDS_P2;PMS_P1;PMS_P2;Temp;Humidity;BMP_temperature;BMP_pressure;BME280_temperature;BME280_humidity;BME280_pressure;Samples;Min_cycle;Max_cycle;Signal;HPM_P1;HPM_P2
2021/05/24 00:02:13;;;;;;;5.03;1.60;;;;;;;15.30;63.18;98682.47;4975319;28;20039;-62
2021/05/24 00:04:39;;;;;;;7.25;1.80;;;;;;;15.20;63.14;98680.03;4992767;28;20034;-61
2021/05/24 00:07:05;;;;;;;6.57;1.60;;;;;;;15.12;62.94;98688.75;4964688;28;20575;-62
2021/05/24 00:09:30;;;;;;;5.50;1.67;;;;;;;15.24;63.51;98681.34;4979572;28;20035;-63
2021/05/24 00:11:56;;;;;;;4.53;1.48;;;;;;;15.28;63.39;98692.31;4978426;28;20409;-62
2021/05/24 00:14:24;;;;;;;5.38;1.52;;;;;;;15.26;63.11;98681.16;4971732;28;20037;-62
2021/05/24 00:16:49;;;;;;;6.25;1.98;;;;;;;15.39;62.79;98697.13;4983013;28;20145;-61
2021/05/24 00:19:15;;;;;;;5.10;1.50;;;;;;;15.37;62.87;98702.53;4983182;28;20105;-61
2021/05/24 00:21:40;;;;;;;6.25;1.40;;;;;;;15.47;63.87;98694.44;4984854;28;20417;-61
2021/05/24 00:24:06;;;;;;;7.68;1.40;;;;;;;15.52;62.60;98679.03;4963222;28;20356;-61
2021/05/24 00:26:32;;;;;;;6.28;1.73;;;;;;;15.43;62.15;98674.84;4983607;28;20023;-63
2021/05/24 00:28:58;;;;;;;5.25;1.40;;;;;;;15.50;62.19;98688.06;4984068;28;20232;-63
2021/05/24 00:31:24;;;;;;;6.00;1.48;;;;;;;15.44;61.76;98675.63;4981762;28;20541;-61
2021/05/24 00:33:49;;;;;;;4.80;1.60;;;;;;;15.26;62.64;98632.22;4977092;28;20463;-62
2021/05/24 00:36:15;;;;;;;6.63;1.73;;;;;;;15.53;62.80;98666.72;4989002;28;20485;-61
2021/05/24 00:38:40;;;;;;;3.88;1.40;;;;;;;15.35;62.87;98648.69;4981164;28;20049;-62
2021/05/24 00:41:05;;;;;;;4.30;1.42;;;;;;;15.53;62.06;98670.19;4980971;28;20027;-61
2021/05/24 00:43:31;;;;;;;7.15;1.73;;;;;;;15.38;62.63;98630.81;4979487;28;20554;-60
2021/05/24 00:45:57;;;;;;;6.03;1.60;;;;;;;15.50;62.29;98654.81;4955866;28;20034;-63
2021/05/24 00:48:22;;;;;;;4.18;1.40;;;;;;;15.50;63.64;98636.47;4965369;28;20086;-61
2021/05/24 00:50:48;;;;;;;8.75;1.60;;;;;;;15.65;63.03;98643.56;4981283;28;20038;-63
2021/05/24 00:53:13;;;;;;;8.05;1.40;;;;;;;15.42;61.46;98635.69;4998523;28;20034;-61
2021/05/24 00:55:39;;;;;;;6.43;1.58;;;;;;;15.49;61.65;98647.91;4981784;28;20066;-62
2021/05/24 00:58:05;;;;;;;3.92;1.30;;;;;;;15.27;61.76;98601.59;4956851;28;20457;-60
2021/05/24 01:00:36;;;;;;;6.30;1.80;;;;;;;15.44;62.07;98633.72;4963773;28;20042;-63
2021/05/24 01:03:02;;;;;;;4.68;1.42;;;;;;;15.38;62.18;98633.44;4978972;28;20041;-62
2021/05/24 01:05:28;;;;;;;6.10;1.50;;;;;;;15.40;62.86;98629.81;4964115;28;20280;-61
2021/05/24 01:07:54;;;;;;;5.63;1.67;;;;;;;15.09;64.43;98613.16;4980805;28;20068;-62
2021/05/24 01:10:19;;;;;;;4.38;1.60;;;;;;;14.97;64.88;98622.41;4963289;28;20076;-61
2021/05/24 01:12:45;;;;;;;6.07;1.40;;;;;;;14.74;65.19;98583.91;4977160;28;20084;-62
2021/05/24 01:15:11;;;;;;;4.60;1.40;;;;;;;15.03;65.18;98618.28;4976551;28;20247;-62
2021/05/24 01:17:37;;;;;;;5.15;1.55;;;;;;;15.10;65.01;98611.38;4963045;28;20539;-61
2021/05/24 01:20:03;;;;;;;5.65;1.98;;;;;;;14.93;65.96;98602.78;4980737;28;20019;-62
2021/05/24 01:22:32;;;;;;;6.63;1.50;;;;;;;14.92;66.05;98606.41;4964650;28;20120;-63
2021/05/24 01:24:57;;;;;;;5.38;1.40;;;;;;;14.88;65.19;98597.28;4981103;28;20055;-62
2021/05/24 01:27:23;;;;;;;4.05;1.30;;;;;;;15.01;64.40;98605.38;4978836;28;20069;-62
2021/05/24 01:29:48;;;;;;;4.90;1.25;;;;;;;15.09;64.50;98588.78;4962816;28;20081;-60
2021/05/24 01:32:14;;;;;;;5.35;1.50;;;;;;;15.14;64.97;98605.59;4980934;28;20117;-63
2021/05/24 01:34:40;;;;;;;5.57;1.50;;;;;;;15.14;64.80;98597.75;4980860;28;20477;-61
2021/05/24 01:37:06;;;;;;;5.60;1.45;;;;;;;14.96;64.75;98555.31;4975397;28;20812;-61
2021/05/24 01:39:31;;;;;;;4.90;1.52;;;;;;;15.22;63.86;98581.16;4958511;28;20026;-62
2021/05/24 01:41:57;;;;;;;5.03;1.23;;;;;;;15.32;64.12;98601.91;4983499;28;20083;-62
2021/05/24 01:44:32;;;;;;;4.40;1.30;;;;;;;15.29;63.37;98608.28;4979144;28;20094;-59
2021/05/24 01:46:58;;;;;;;4.82;1.33;;;;;;;15.26;61.58;98599.94;4961875;28;20034;-62
2021/05/24 01:49:24;;;;;;;4.57;1.30;;;;;;;15.30;62.01;98609.91;4982895;28;20056;-62
2021/05/24 01:51:50;;;;;;;7.80;1.60;;;;;;;15.25;63.18;98616.69;4970142;28;20039;-62
2021/05/24 01:54:16;;;;;;;4.15;1.30;;;;;;;15.35;62.09;98614.63;4979806;28;20035;-62
2021/05/24 01:56:41;;;;;;;4.75;1.58;;;;;;;15.42;61.81;98615.53;4981084;28;20030;-61
2021/05/24 01:59:07;;;;;;;4.00;1.35;;;;;;;15.33;62.95;98600.88;4980261;28;20118;-64
2021/05/24 02:01:33;;;;;;;4.25;1.33;;;;;;;15.28;62.87;98621.56;4975241;28;20038;-60
2021/05/24 02:03:58;;;;;;;5.38;1.38;;;;;;;15.13;63.00;98606.59;4974376;28;20532;-61
2021/05/24 02:06:24;;;;;;;4.30;1.42;;;;;;;15.19;63.42;98619.00;4975511;28;20764;-61
2021/05/24 02:08:49;;;;;;;5.25;1.58;;;;;;;15.15;63.85;98625.56;4980866;28;20058;-63
2021/05/24 02:11:15;;;;;;;4.15;1.50;;;;;;;15.26;63.82;98626.16;4981808;28;20134;-62
2021/05/24 02:13:44;;;;;;;5.53;1.70;;;;;;;15.24;64.19;98618.50;4963801;28;20068;-60
2021/05/24 02:16:10;;;;;;;4.47;1.58;;;;;;;15.22;64.27;98606.53;4976287;28;20037;-61
2021/05/24 02:18:36;;;;;;;5.25;1.52;;;;;;;15.35;63.80;98617.25;4977311;28;20030;-63
2021/05/24 02:21:02;;;;;;;5.30;1.40;;;;;;;15.08;63.47;98571.47;4982095;28;20058;-61
2021/05/24 02:23:28;;;;;;;5.30;1.70;;;;;;;15.00;64.61;98590.63;4981101;28;20688;-61
2021/05/24 02:25:53;;;;;;;4.82;1.60;;;;;;;14.90;63.86;98564.69;4982645;28;20060;-62
2021/05/24 02:28:19;;;;;;;6.43;1.60;;;;;;;15.12;63.32;98589.25;4981953;28;20579;-61
2021/05/24 02:30:44;;;;;;;4.70;1.70;;;;;;;15.12;63.21;98573.53;4978367;28;20560;-62
2021/05/24 02:33:10;;;;;;;8.40;1.80;;;;;;;15.17;64.03;98586.94;4983886;28;20038;-61
2021/05/24 02:35:35;;;;;;;7.20;1.67;;;;;;;15.12;63.87;98565.69;4995742;28;20041;-61
2021/05/24 02:38:01;;;;;;;7.13;1.67;;;;;;;14.96;63.75;98537.00;4982025;28;20030;-62
2021/05/24 02:40:27;;;;;;;5.13;1.40;;;;;;;15.14;64.05;98560.28;4981597;28;20128;-61
2021/05/24 02:42:53;;;;;;;6.70;1.60;;;;;;;15.02;64.27;98536.28;4980657;28;20203;-61
2021/05/24 02:45:20;;;;;;;4.38;1.52;;;;;;;15.07;64.49;98554.91;4983019;28;20070;-60
2021/05/24 02:47:46;;;;;;;5.65;1.92;;;;;;;15.11;64.63;98555.38;4978546;28;20042;-62
2021/05/24 02:50:15;;;;;;;5.07;1.70;;;;;;;14.98;63.81;98533.19;4979462;28;20922;-62
2021/05/24 02:52:41;;;;;;;5.05;1.52;;;;;;;15.12;64.50;98572.72;4973987;28;20015;-63
2021/05/24 02:55:07;;;;;;;6.45;1.65;;;;;;;15.08;64.40;98571.47;4982847;28;20034;-60
2021/05/24 02:57:32;;;;;;;5.15;1.65;;;;;;;15.22;63.91;98588.19;4979803;28;22118;-62
2021/05/24 02:59:58;;;;;;;4.65;1.70;;;;;;;14.75;65.04;98546.31;4982227;28;20057;-61
2021/05/24 03:02:26;;;;;;;4.13;1.60;;;;;;;14.94;65.17;98589.53;4981457;28;20124;-62
2021/05/24 03:04:52;;;;;;;5.78;1.77;;;;;;;14.67;66.01;98567.28;4980713;28;20034;-61
2021/05/24 03:07:18;;;;;;;5.82;1.73;;;;;;;14.83;65.62;98600.41;4972672;28;20046;-61
2021/05/24 03:09:43;;;;;;;4.90;1.80;;;;;;;14.91;65.17;98599.53;4981391;28;20113;-59
2021/05/24 03:12:09;;;;;;;4.93;2.22;;;;;;;14.87;65.24;98601.69;4981471;28;20106;-61
2021/05/24 03:14:34;;;;;;;6.63;2.40;;;;;;;14.76;65.54;98595.03;4981757;28;20535;-62
2021/05/24 03:17:00;;;;;;;5.15;1.90;;;;;;;14.75;65.47;98601.25;4980740;28;20034;-62
2021/05/24 03:19:25;;;;;;;5.97;2.15;;;;;;;14.32;65.82;98571.19;4980136;28;20055;-62
2021/05/24 03:21:50;;;;;;;5.47;2.10;;;;;;;14.46;65.75;98614.13;4971990;28;20030;-62
2021/05/24 03:24:16;;;;;;;5.95;1.90;;;;;;;14.33;65.88;98609.41;4985615;28;20034;-62
2021/05/24 03:26:41;;;;;;;4.78;2.13;;;;;;;14.32;64.79;98613.84;4981134;28;20034;-60
2021/05/24 03:29:07;;;;;;;6.25;1.73;;;;;;;14.45;63.39;98620.34;4982693;28;20473;-62
2021/05/24 03:31:33;;;;;;;5.40;1.58;;;;;;;14.43;63.49;98599.56;4980533;28;20060;-63
2021/05/24 03:33:58;;;;;;;6.90;1.73;;;;;;;14.20;62.39;98568.09;4984373;28;20445;-62
2021/05/24 03:36:23;;;;;;;6.68;1.70;;;;;;;14.57;61.64;98616.38;4981724;28;20041;-60
2021/05/24 03:38:49;;;;;;;4.78;1.77;;;;;;;14.67;60.69;98624.03;4979757;28;20034;-63
2021/05/24 03:41:15;;;;;;;6.45;1.75;;;;;;;14.76;60.57;98623.81;4987640;28;20167;-61
2021/05/24 03:43:45;;;;;;;4.43;1.45;;;;;;;14.82;61.05;98624.13;4976383;28;20087;-62
2021/05/24 03:46:11;;;;;;;7.55;1.88;;;;;;;14.92;61.22;98611.66;4975546;28;20034;-62
2021/05/24 03:48:37;;;;;;;7.38;1.77;;;;;;;15.02;60.72;98601.75;4985121;28;20034;-60
2021/05/24 03:51:07;;;;;;;4.40;1.50;;;;;;;14.63;60.35;98567.81;5013365;28;20489;-62
2021/05/24 03:53:33;;;;;;;5.60;1.50;;;;;;;14.71;60.35;98557.28;4982643;28;20436;-63
2021/05/24 03:55:58;;;;;;;6.72;1.50;;;;;;;15.06;59.67;98607.44;4978287;28;20022;-62
2021/05/24 03:58:24;;;;;;;6.10;1.60;;;;;;;15.16;58.97;98624.56;4983804;28;20038;-61
2021/05/24 04:00:49;;;;;;;6.88;1.60;;;;;;;14.83;59.73;98581.28;4985185;28;20101;-61
2021/05/24 04:03:15;;;;;;;4.55;1.65;;;;;;;15.05;58.90;98635.44;4981032;28;20038;-61
2021/05/24 04:05:43;;;;;;;7.57;1.88;;;;;;;15.09;59.74;98639.34;4982847;28;20053;-62
2021/05/24 04:08:09;;;;;;;5.05;1.70;;;;;;;15.15;59.18;98636.06;4978568;28;20027;-60
2021/05/24 04:10:37;;;;;;;6.78;2.00;;;;;;;15.22;58.97;98620.44;4983903;28;20022;-62
2021/05/24 04:13:03;;;;;;;6.07;2.00;;;;;;;15.25;58.29;98607.00;4978529;28;20038;-61
2021/05/24 04:15:28;;;;;;;7.15;1.80;;;;;;;15.14;58.41;98594.31;4981617;28;20037;-62
2021/05/24 04:17:57;;;;;;;6.20;2.38;;;;;;;15.07;59.67;98594.19;4984817;28;20057;-62
2021/05/24 04:20:24;;;;;;;5.65;1.80;;;;;;;14.93;61.68;98589.69;4986320;28;20026;-62
2021/05/24 04:22:50;;;;;;;5.45;2.20;;;;;;;14.65;62.41;98555.34;4978147;28;20030;-61
2021/05/24 04:25:15;;;;;;;6.13;1.83;;;;;;;14.95;62.50;98583.31;4979810;28;20627;-63
2021/05/24 04:27:40;;;;;;;6.03;2.60;;;;;;;15.03;63.00;98584.25;4980556;28;20395;-62
2021/05/24 04:30:09;;;;;;;9.45;2.17;;;;;;;15.07;61.69;98564.59;4975701;28;20468;-62
2021/05/24 04:32:35;;;;;;;7.80;1.90;;;;;;;15.03;60.84;98564.13;4981588;28;20034;-62
2021/05/24 04:35:00;;;;;;;5.75;2.10;;;;;;;14.85;60.32;98519.09;4976824;28;20142;-60
2021/05/24 04:37:26;;;;;;;4.95;1.98;;;;;;;14.90;60.43;98522.81;4981810;28;20053;-59
2021/05/24 04:39:51;;;;;;;5.70;1.90;;;;;;;15.14;61.02;98561.09;4977324;28;20639;-62
2021/05/24 04:42:19;;;;;;;6.68;1.70;;;;;;;15.09;61.07;98560.78;4981077;28;20030;-61
2021/05/24 04:44:44;;;;;;;5.90;2.40;;;;;;;15.02;61.21;98548.56;4980688;28;20861;-62
2021/05/24 04:47:10;;;;;;;5.07;2.20;;;;;;;15.02;61.36;98552.00;4981070;28;20030;-61
2021/05/24 04:49:35;;;;;;;5.07;2.03;;;;;;;15.17;61.80;98555.50;4981376;28;20795;-63
2021/05/24 04:52:01;;;;;;;5.43;2.05;;;;;;;15.24;61.55;98554.78;4979276;28;20064;-61
2021/05/24 04:54:27;;;;;;;5.50;2.03;;;;;;;15.26;61.70;98540.53;4983470;28;20026;-60
2021/05/24 04:56:53;;;;;;;6.50;2.13;;;;;;;15.08;61.74;98508.63;4976487;28;20102;-60
2021/05/24 04:59:19;;;;;;;7.65;2.20;;;;;;;15.24;61.11;98541.69;4980344;28;20038;-61
2021/05/24 05:01:47;;;;;;;5.75;2.25;;;;;;;15.28;61.29;98543.78;4978772;28;20046;-62
2021/05/24 05:04:12;;;;;;;6.45;2.67;;;;;;;15.05;61.14;98524.66;4981681;28;20472;-61
2021/05/24 05:06:37;;;;;;;6.93;2.60;;;;;;;15.15;61.65;98535.69;4982245;28;20039;-62
2021/05/24 05:09:04;;;;;;;8.55;3.20;;;;;;;15.36;61.93;98583.00;4982976;28;20038;-62
2021/05/24 05:11:29;;;;;;;7.45;3.13;;;;;;;15.29;62.50;98586.50;4981937;28;20035;-62
2021/05/24 05:13:55;;;;;;;7.78;3.55;;;;;;;15.07;63.69;98590.75;4977644;28;20038;-62
2021/05/24 05:16:20;;;;;;;7.97;3.58;;;;;;;15.11;63.58;98603.34;4967127;28;20026;-62
2021/05/24 05:18:45;;;;;;;7.53;3.65;;;;;;;14.95;64.61;98612.13;4967306;28;20044;-60
2021/05/24 05:21:11;;;;;;;7.15;3.70;;;;;;;14.88;65.13;98626.06;4981511;28;20137;-62
2021/05/24 05:23:36;;;;;;;11.23;4.38;;;;;;;14.68;64.03;98582.00;4980287;28;20433;-62
2021/05/24 05:26:02;;;;;;;11.32;4.15;;;;;;;14.99;64.40;98644.81;4980233;28;20114;-63
2021/05/24 05:28:27;;;;;;;9.32;3.63;;;;;;;14.93;64.24;98650.75;5007687;28;20133;-62
2021/05/24 05:30:53;;;;;;;9.40;3.72;;;;;;;14.75;64.78;98616.97;4980494;28;20069;-60
2021/05/24 05:33:18;;;;;;;10.57;3.70;;;;;;;14.97;64.79;98672.16;4983619;28;20066;-61
2021/05/24 05:35:47;;;;;;;9.85;3.80;;;;;;;14.87;65.39;98671.53;4978114;28;20112;-62
2021/05/24 05:38:13;;;;;;;8.57;3.67;;;;;;;14.92;65.92;98679.72;4981729;28;20061;-61
2021/05/24 05:40:39;;;;;;;9.00;4.30;;;;;;;14.90;65.88;98689.53;4977450;28;20040;-62
2021/05/24 05:43:04;;;;;;;8.82;3.85;;;;;;;14.87;66.26;98689.88;4977874;28;20030;-62
2021/05/24 05:45:30;;;;;;;11.45;4.68;;;;;;;14.87;66.58;98688.06;4978798;28;20091;-61
2021/05/24 05:47:55;;;;;;;9.63;4.45;;;;;;;14.83;66.72;98689.41;4977765;28;20046;-62
2021/05/24 05:50:21;;;;;;;11.50;4.60;;;;;;;14.81;67.34;98680.91;4982191;28;20038;-63
2021/05/24 05:52:47;;;;;;;9.88;4.70;;;;;;;14.75;68.74;98695.47;4979230;28;20100;-61
2021/05/24 05:55:12;;;;;;;9.98;4.55;;;;;;;14.79;68.20;98677.63;4981239;28;20462;-60
2021/05/24 05:57:38;;;;;;;10.18;4.80;;;;;;;14.94;69.22;98680.34;4975661;28;20133;-62
2021/05/24 06:00:05;;;;;;;12.73;4.82;;;;;;;14.67;69.67;98650.19;4978581;28;20034;-59
2021/05/24 06:02:30;;;;;;;10.23;4.53;;;;;;;14.81;69.87;98680.91;4981302;28;20034;-62
2021/05/24 06:04:56;;;;;;;9.52;4.22;;;;;;;14.70;70.13;98676.03;4979092;28;20040;-61
2021/05/24 06:07:21;;;;;;;9.40;4.80;;;;;;;14.56;69.86;98640.88;4983326;28;20061;-61
2021/05/24 06:09:47;;;;;;;10.95;4.72;;;;;;;14.66;71.24;98678.19;4980870;28;20030;-62
2021/05/24 06:12:12;;;;;;;10.38;4.55;;;;;;;14.63;70.68;98660.19;4973044;28;20117;-60
2021/05/24 06:14:38;;;;;;;10.93;4.95;;;;;;;14.75;72.02;98652.81;4995640;28;20038;-62
2021/05/24 06:17:04;;;;;;;9.50;5.35;;;;;;;14.35;73.67;98651.94;4981542;28;20488;-61
2021/05/24 06:19:30;;;;;;;11.20;4.80;;;;;;;14.03;75.33;98646.56;4983738;28;20112;-61
2021/05/24 06:21:55;;;;;;;8.90;4.72;;;;;;;13.97;75.22;98615.06;4974026;28;20774;-61
2021/05/24 06:24:20;;;;;;;9.18;4.60;;;;;;;14.36;75.56;98643.09;4982135;28;20041;-60
2021/05/24 06:26:46;;;;;;;13.45;4.97;;;;;;;14.36;74.06;98633.44;4979517;28;20034;-60
2021/05/24 06:29:11;;;;;;;8.88;4.82;;;;;;;14.56;74.50;98649.53;4975733;28;20054;-61
2021/05/24 06:31:39;;;;;;;11.13;5.18;;;;;;;14.60;75.12;98658.75;4981024;28;20035;-60
2021/05/24 06:34:04;;;;;;;11.75;4.97;;;;;;;14.72;73.27;98663.59;4976072;28;20035;-61
2021/05/24 06:36:30;;;;;;;11.40;5.18;;;;;;;14.70;73.97;98670.81;4982536;28;20463;-60
2021/05/24 06:38:56;;;;;;;12.50;5.05;;;;;;;14.70;74.39;98671.63;4993920;28;20027;-61
2021/05/24 06:41:21;;;;;;;11.25;5.50;;;;;;;14.76;74.26;98677.97;4985096;28;20033;-60
2021/05/24 06:43:47;;;;;;;8.30;4.65;;;;;;;14.76;74.62;98681.41;4979167;28;20445;-60
2021/05/24 06:46:12;;;;;;;12.52;5.03;;;;;;;14.79;74.18;98696.78;4976572;28;20528;-61
2021/05/24 06:48:38;;;;;;;8.80;5.22;;;;;;;14.74;75.69;98708.72;4976221;28;20034;-61
2021/05/24 06:51:04;;;;;;;10.77;5.05;;;;;;;14.70;75.64;98716.09;4976983;28;20030;-61
2021/05/24 06:53:29;;;;;;;10.75;5.22;;;;;;;14.63;77.20;98732.66;4978822;28;20034;-61
2021/05/24 06:55:55;;;;;;;10.45;5.45;;;;;;;14.37;78.01;98695.22;4977051;28;20034;-61
2021/05/24 06:58:20;;;;;;;10.10;5.53;;;;;;;14.36;77.22;98745.91;4980496;28;20121;-61
2021/05/24 07:00:46;;;;;;;12.35;5.57;;;;;;;14.25;77.64;98748.06;4980387;28;20384;-61
2021/05/24 07:03:12;;;;;;;12.13;6.35;;;;;;;14.17;79.26;98748.88;4982353;28;20646;-61
2021/05/24 07:05:38;;;;;;;11.57;5.85;;;;;;;14.32;79.66;98743.78;4981424;28;20100;-62
2021/05/24 07:08:03;;;;;;;11.65;6.10;;;;;;;14.21;80.24;98708.34;4963697;28;20034;-61
2021/05/24 07:10:29;;;;;;;12.20;5.55;;;;;;;14.23;79.76;98728.09;4963852;28;20030;-61
2021/05/24 07:12:54;;;;;;;12.50;5.72;;;;;;;14.23;80.73;98701.94;4980449;28;20062;-61
2021/05/24 07:15:20;;;;;;;12.25;5.85;;;;;;;14.19;78.50;98699.84;4991823;28;20429;-60
2021/05/24 07:17:45;;;;;;;10.40;5.88;;;;;;;13.96;78.92;98671.78;4979007;28;20035;-62
2021/05/24 07:20:12;;;;;;;13.27;5.97;;;;;;;14.23;79.55;98708.97;4978285;28;20389;-61
2021/05/24 07:22:37;;;;;;;11.05;5.72;;;;;;;14.26;79.99;98702.63;4982980;28;20560;-62
2021/05/24 07:25:04;;;;;;;10.98;6.05;;;;;;;14.19;80.52;98682.34;4978449;28;20034;-57
2021/05/24 07:27:30;;;;;;;11.40;5.63;;;;;;;13.92;79.16;98639.09;4996778;28;20452;-63
2021/05/24 07:29:55;;;;;;;8.98;5.30;;;;;;;14.03;78.94;98659.66;4976643;28;20027;-62
2021/05/24 07:32:21;;;;;;;11.57;6.22;;;;;;;14.07;79.08;98669.78;4981202;28;20034;-61
2021/05/24 07:34:46;;;;;;;11.18;6.60;;;;;;;13.74;80.87;98672.41;4975613;28;20038;-62
2021/05/24 07:37:11;;;;;;;12.23;6.30;;;;;;;13.43;82.45;98644.31;4982913;28;20069;-61
2021/05/24 07:39:37;;;;;;;13.05;6.18;;;;;;;13.63;81.52;98694.47;4983056;28;20560;-62
2021/05/24 07:42:04;;;;;;;11.40;5.57;;;;;;;13.45;81.30;98691.97;4984542;28;20339;-60
2021/05/24 07:44:30;;;;;;;8.55;4.88;;;;;;;13.11;82.04;98663.34;4986443;28;20026;-61
2021/05/24 07:46:56;;;;;;;8.90;5.63;;;;;;;12.92;82.11;98678.28;4978522;28;20057;-60
2021/05/24 07:49:22;;;;;;;8.43;3.85;;;;;;;12.82;82.59;98699.28;4977288;28;20092;-60
2021/05/24 07:51:49;;;;;;;8.40;3.67;;;;;;;12.62;84.40;98683.06;4975311;28;20417;-61
2021/05/24 07:54:15;;;;;;;7.70;3.63;;;;;;;12.80;84.46;98703.03;4983944;28;20026;-61
2021/05/24 07:56:41;;;;;;;8.88;3.95;;;;;;;12.62;85.25;98690.06;4978027;28;20045;-60
2021/05/24 07:59:06;;;;;;;8.15;3.50;;;;;;;12.69;85.54;98698.91;4980380;28;20030;-59
2021/05/24 08:01:31;;;;;;;9.55;4.22;;;;;;;12.67;84.71;98693.03;4977562;28;20042;-63
2021/05/24 08:03:57;;;;;;;7.95;4.10;;;;;;;12.56;84.25;98707.16;4978664;28;20022;-62
2021/05/24 08:06:22;;;;;;;8.50;4.25;;;;;;;12.44;84.97;98697.97;4980832;28;20481;-61
2021/05/24 08:08:48;;;;;;;7.25;4.25;;;;;;;12.51;86.13;98698.97;4962909;28;20023;-61
2021/05/24 08:11:15;;;;;;;6.90;3.97;;;;;;;12.53;84.95;98697.03;4977295;28;20072;-64
2021/05/24 08:13:40;;;;;;;9.15;3.85;;;;;;;12.43;85.43;98694.53;4980701;28;20053;-62
2021/05/24 08:16:06;;;;;;;8.13;4.05;;;;;;;12.53;85.03;98699.63;4981958;28;20117;-62
2021/05/24 08:18:32;;;;;;;9.50;4.53;;;;;;;12.62;85.03;98709.13;4977262;28;20468;-61
2021/05/24 08:20:57;;;;;;;9.00;4.20;;;;;;;12.43;84.75;98672.84;4976791;28;20061;-61
2021/05/24 08:23:23;;;;;;;7.85;4.00;;;;;;;12.66;85.64;98714.88;4979288;28;20023;-62
2021/05/24 08:25:48;;;;;;;9.95;4.30;;;;;;;12.80;86.18;98705.66;4976801;28;20504;-61
2021/05/24 08:28:16;;;;;;;9.80;4.18;;;;;;;12.91;84.88;98725.44;4973117;28;20113;-61
2021/05/24 08:30:42;;;;;;;10.18;4.75;;;;;;;12.92;86.54;98717.41;4975101;28;20101;-60
2021/05/24 08:33:08;;;;;;;9.25;4.53;;;;;;;13.01;86.18;98729.53;4974944;28;20014;-60
2021/05/24 08:35:33;;;;;;;8.98;4.65;;;;;;;13.23;85.93;98741.22;4974782;28;20473;-59
2021/05/24 08:37:59;;;;;;;8.52;3.85;;;;;;;13.31;85.01;98732.63;4974658;28;20034;-60
2021/05/24 08:40:25;;;;;;;8.70;4.28;;;;;;;13.36;84.97;98721.69;4965311;28;20037;-60
2021/05/24 08:42:51;;;;;;;7.40;4.00;;;;;;;13.22;84.12;98702.22;4972025;28;20050;-59
2021/05/24 08:45:16;;;;;;;9.52;4.63;;;;;;;13.40;84.24;98697.69;4979244;28;20069;-58
2021/05/24 08:47:42;;;;;;;9.57;4.85;;;;;;;13.46;83.67;98702.28;4963385;28;20049;-59
2021/05/24 08:50:08;;;;;;;8.60;5.18;;;;;;;13.55;83.91;98692.66;4983873;28;20026;-61
2021/05/24 08:52:33;;;;;;;7.70;4.80;;;;;;;13.32;83.43;98655.09;4973939;28;20026;-60
2021/05/24 08:54:59;;;;;;;6.60;4.40;;;;;;;13.50;83.54;98676.66;4973860;28;20549;-61
2021/05/24 08:57:24;;;;;;;8.25;4.47;;;;;;;13.21;83.44;98672.66;4985201;28;20039;-61
2021/05/24 08:59:50;;;;;;;7.70;4.30;;;;;;;13.24;84.03;98661.88;4979396;28;20408;-62
2021/05/24 09:02:16;;;;;;;7.90;4.50;;;;;;;12.80;84.75;98607.31;4978012;28;20041;-61
2021/05/24 09:04:49;;;;;;;8.25;4.50;;;;;;;12.61;85.42;98591.91;4970016;28;20038;-61
2021/05/24 09:07:16;;;;;;;8.13;4.97;;;;;;;12.47;85.36;98585.53;4971538;28;20481;-63
2021/05/24 09:09:59;;;;;;;9.70;5.65;;;;;;;12.74;nan;98618.38;4982942;28;20030;-61
2021/05/24 09:12:31;;;;;;;7.80;3.63;;;;;;;12.56;85.73;98604.59;4976332;28;20057;-62
2021/05/24 09:14:59;;;;;;;8.63;4.10;;;;;;;12.39;86.53;98588.91;4967762;28;20043;-62
2021/05/24 09:17:24;;;;;;;7.10;3.80;;;;;;;12.45;87.00;98587.47;4987702;28;20038;-63
2021/05/24 09:19:49;;;;;;;7.53;3.25;;;;;;;12.23;85.79;98589.66;4974948;28;20039;-61
2021/05/24 09:22:15;;;;;;;6.90;3.20;;;;;;;12.31;86.31;98592.28;4957575;28;20798;-62
2021/05/24 09:24:42;;;;;;;6.50;3.30;;;;;;;12.23;85.59;98575.78;4973579;28;20515;-61
2021/05/24 09:27:28;;;;;;;7.50;3.92;;;;;;;12.20;86.33;98603.00;4955965;28;20600;-58
2021/05/24 09:29:57;;;;;;;7.32;3.72;;;;;;;12.20;86.81;98615.22;4974938;28;20108;-62
2021/05/24 09:32:26;;;;;;;9.60;3.67;;;;;;;12.18;87.08;98617.16;4973782;28;20030;-62
2021/05/24 09:34:54;;;;;;;8.90;2.93;;;;;;;12.17;83.88;98613.72;4981823;28;20270;-62
2021/05/24 09:37:31;;;;;;;7.55;3.17;;;;;;;12.21;85.65;98601.19;4976528;28;20049;-60
2021/05/24 09:39:56;;;;;;;6.60;3.40;;;;;;;12.16;85.44;98580.03;4974286;28;20026;-60
2021/05/24 09:42:22;;;;;;;7.82;3.25;;;;;;;12.11;85.86;98580.47;4973348;28;20422;-61
2021/05/24 09:44:55;;;;;;;7.95;3.75;;;;;;;12.17;86.67;98579.03;4956479;28;20355;-59
2021/05/24 09:47:34;;;;;;;6.97;2.95;;;;;;;12.17;85.15;98599.88;4999293;28;20045;-60
2021/05/24 09:50:14;;;;;;;6.47;3.10;;;;;;;12.19;85.76;98575.28;4969660;28;20026;-60
2021/05/24 09:52:42;;;;;;;5.65;2.95;;;;;;;12.23;86.20;98574.03;4978287;28;20384;-59
2021/05/24 09:55:25;;;;;;;5.78;3.08;;;;;;;12.26;85.05;98572.88;4972747;28;20045;-60
2021/05/24 09:58:04;;;;;;;4.60;2.50;;;;;;;12.03;82.92;98565.63;4968719;28;20508;-59
2021/05/24 10:00:43;;;;;;;6.20;2.90;;;;;;;12.19;83.72;98556.22;4969941;28;20552;-60
2021/05/24 10:03:11;;;;;;;5.93;2.90;;;;;;;12.13;84.26;98543.84;4969380;28;20061;-59
2021/05/24 10:05:44;;;;;;;6.10;3.30;;;;;;;12.18;84.45;98555.41;4980352;28;20038;-61
2021/05/24 10:08:10;;;;;;;5.80;3.30;;;;;;;12.17;86.19;98519.09;4977392;28;20130;-61
2021/05/24 10:10:36;;;;;;;6.70;3.22;;;;;;;12.37;84.83;98514.44;4973675;28;20026;-61
2021/05/24 10:13:02;;;;;;;6.55;3.05;;;;;;;12.41;84.96;98518.34;4974470;28;20045;-62
2021/05/24 10:15:28;;;;;;;6.43;3.58;;;;;;;12.44;84.57;98508.41;4974404;28;20026;-60
2021/05/24 10:18:03;;;;;;;6.15;3.22;;;;;;;12.50;84.43;98501.75;4959196;28;20035;-61
2021/05/24 10:20:30;;;;;;;5.60;3.10;;;;;;;12.52;83.82;98488.53;4970073;28;20077;-60
2021/05/24 10:22:55;;;;;;;6.82;2.92;;;;;;;12.44;82.93;98478.91;4971172;28;20057;-60
2021/05/24 10:25:21;;;;;;;6.38;3.10;;;;;;;12.63;83.75;98490.84;4967161;28;20053;-60
2021/05/24 10:27:47;;;;;;;5.15;2.97;;;;;;;12.54;83.12;98494.41;4960132;28;20058;-61
2021/05/24 10:30:13;;;;;;;6.25;3.22;;;;;;;12.65;83.03;98491.53;4972108;28;20583;-61
2021/05/24 10:33:00;;;;;;;6.55;3.40;;;;;;;12.75;84.77;98486.16;4975558;28;20634;-62
2021/05/24 10:35:33;;;;;;;7.20;3.53;;;;;;;12.75;84.19;98471.28;4972494;28;20034;-60
2021/05/24 10:37:59;;;;;;;6.32;3.42;;;;;;;12.82;83.74;98480.09;4989536;28;20049;-61
2021/05/24 10:40:25;;;;;;;6.82;3.30;;;;;;;12.72;82.32;98458.56;4958476;28;20058;-62
2021/05/24 10:43:06;;;;;;;5.75;3.45;;;;;;;12.93;83.85;98478.97;4971416;28;20516;-63
2021/05/24 10:45:32;;;;;;;5.47;3.20;;;;;;;12.97;80.32;98467.22;4973633;28;20069;-62
2021/05/24 10:47:59;;;;;;;7.38;3.10;;;;;;;12.93;81.43;98468.53;4980105;28;20559;-61
2021/05/24 10:50:26;;;;;;;5.75;3.40;;;;;;;13.03;83.37;98470.97;4977381;28;20040;-61
2021/05/24 10:53:01;;;;;;;7.35;3.17;;;;;;;13.00;81.31;98473.94;4979901;28;20058;-61
2021/05/24 10:55:27;;;;;;;6.47;3.20;;;;;;;12.80;80.98;98421.25;4976810;28;20115;-61
2021/05/24 10:57:56;;;;;;;5.22;2.92;;;;;;;12.83;79.70;98419.13;4973404;28;20535;-60
2021/05/24 11:00:22;;;;;;;6.90;2.80;;;;;;;13.24;79.89;98468.69;4978613;28;20050;-59
2021/05/24 11:02:52;;;;;;;8.32;4.57;;;;;;;13.23;78.91;98461.84;4982183;28;20030;-61
2021/05/24 11:05:24;;;;;;;6.10;3.45;;;;;;;13.34;81.00;98457.28;4979305;28;20584;-60
2021/05/24 11:07:51;;;;;;;4.53;2.40;;;;;;;13.33;77.92;98453.03;4974301;28;20078;-61
2021/05/24 11:10:17;;;;;;;5.68;2.65;;;;;;;13.30;77.83;98448.13;4974785;28;20040;-60
2021/05/24 11:13:11;;;;;;;5.45;2.95;;;;;;;13.39;78.75;98449.75;4972489;28;20042;-61
2021/05/24 11:15:41;;;;;;;6.05;3.00;;;;;;;13.31;79.79;98427.09;4977946;28;20030;-61
2021/05/24 11:18:06;;;;;;;5.90;2.67;;;;;;;13.54;80.29;98458.53;4968438;28;20084;-61
2021/05/24 11:20:55;;;;;;;5.45;2.95;;;;;;;13.61;79.60;98449.03;4971803;28;20038;-59
2021/05/24 11:25:56;;;;;;;5.25;2.28;;;;;;;13.57;76.04;98457.41;4954012;28;20665;-60
2021/05/24 11:28:36;;;;;;;5.40;2.70;;;;;;;13.62;79.08;98460.31;4968927;28;20022;-60
2021/05/24 11:31:35;;;;;;;5.80;2.40;;;;;;;13.51;77.74;98466.72;4967622;28;20034;-60
2021/05/24 11:34:00;;;;;;;4.78;2.30;;;;;;;13.50;77.46;98461.66;4971052;28;20047;-60